createdAt,value
2022-10-23T00:00:20.147Z,98743.59
2022-10-23T00:02:47.421Z,98741.09
2022-10-23T00:05:14.570Z,98741.94
2022-10-23T00:07:41.673Z,98744.53
2022-10-23T00:10:08.793Z,98741.09
2022-10-23T00:12:35.959Z,98745.50
2022-10-23T00:15:03.028Z,98750.69
2022-10-23T00:17:32.743Z,98749.88
2022-10-23T00:19:59.826Z,98742.06
2022-10-23T00:22:26.899Z,98740.38
2022-10-23T00:24:53.979Z,98744.66
2022-10-23T00:27:21.043Z,98743.84
2022-10-23T00:29:48.144Z,98742.16
2022-10-23T00:32:15.210Z,98737.78
2022-10-23T00:34:42.343Z,98732.69
2022-10-23T00:37:09.414Z,98725.72
2022-10-23T00:39:36.536Z,98725.84
2022-10-23T00:42:03.598Z,98726.66
2022-10-23T00:44:30.673Z,98725.72
2022-10-23T00:46:57.735Z,98723.22
2022-10-23T00:49:25.618Z,98717.06
2022-10-23T00:51:52.741Z,98712.81
2022-10-23T00:54:24.115Z,98714.59
2022-10-23T00:56:52.005Z,98708.66
2022-10-23T00:59:19.083Z,98711.13
2022-10-23T01:01:46.276Z,98718.94
2022-10-23T01:04:13.510Z,98712.91
2022-10-23T01:06:40.589Z,98712.09
2022-10-23T01:09:07.665Z,98708.66
2022-10-23T01:11:34.731Z,98713.88
2022-10-23T01:16:48.981Z,98697.41
2022-10-23T01:19:16.052Z,98702.63
2022-10-23T01:21:43.166Z,98699.19
2022-10-23T01:24:10.293Z,98693.16
2022-10-23T01:26:37.431Z,98694.94
2022-10-23T01:29:04.554Z,98685.34
2022-10-23T01:31:31.684Z,98679.31
2022-10-23T01:33:58.836Z,98682.75
2022-10-23T01:36:25.899Z,98686.28
2022-10-23T01:38:53.040Z,98685.44
2022-10-23T01:41:20.183Z,98674.22
2022-10-23T01:43:47.260Z,98674.22
2022-10-23T01:46:14.628Z,98671.59
2022-10-23T01:48:41.713Z,98672.44
2022-10-23T01:51:08.951Z,98676.81
2022-10-23T01:53:36.020Z,98674.22
2022-10-23T01:56:03.148Z,98664.75
2022-10-23T01:58:30.228Z,98658.72
2022-10-23T02:00:57.367Z,98658.72
2022-10-23T02:03:24.622Z,98657.91
2022-10-23T02:05:51.699Z,98656.13
2022-10-23T02:08:18.857Z,98657.91
2022-10-23T02:10:45.957Z,98658.72
2022-10-23T02:13:13.059Z,98653.50
2022-10-23T02:15:40.860Z,98650.09
2022-10-23T02:18:09.623Z,98649.22
2022-10-23T02:20:36.907Z,98634.53
2022-10-23T02:23:04.067Z,98640.56
2022-10-23T02:25:31.367Z,98642.34
2022-10-23T02:27:58.436Z,98639.75
2022-10-23T02:30:25.509Z,98639.75
2022-10-23T02:32:52.621Z,98635.34
2022-10-23T02:35:19.735Z,98639.75
2022-10-23T02:37:46.817Z,98642.34
2022-10-23T02:40:13.979Z,98638.09
2022-10-23T02:42:41.118Z,98630.28
2022-10-23T02:45:08.991Z,98632.88
2022-10-23T02:47:36.686Z,98641.50
2022-10-23T02:50:03.847Z,98641.50
2022-10-23T02:52:31.056Z,98638.91
2022-10-23T02:54:58.233Z,98644.13
2022-10-23T02:57:25.314Z,98650.28
2022-10-23T02:59:52.407Z,98651.94
2022-10-23T03:02:19.622Z,98646.84
2022-10-23T03:04:46.789Z,98639.97
2022-10-23T03:07:13.893Z,98638.22
2022-10-23T03:09:40.970Z,98639.97
2022-10-23T03:12:08.055Z,98631.31
2022-10-23T03:14:35.121Z,98624.47
2022-10-23T03:17:02.194Z,98620.09
2022-10-23T03:19:29.301Z,98631.31
2022-10-23T03:21:56.483Z,98639.13
2022-10-23T03:24:23.599Z,98642.56
2022-10-23T03:26:50.669Z,98643.53
2022-10-23T03:29:17.756Z,98629.69
2022-10-23T03:31:44.817Z,98629.69
2022-10-23T03:34:11.955Z,98626.25
2022-10-23T03:36:39.027Z,98623.66
2022-10-23T03:39:06.166Z,98622.81
2022-10-23T03:41:33.312Z,98625.44
2022-10-23T03:44:00.416Z,98627.19
2022-10-23T03:46:27.610Z,98617.63
2022-10-23T03:48:56.850Z,98615.00
2022-10-23T03:51:23.987Z,98616.78
2022-10-23T03:53:51.223Z,98614.19
2022-10-23T03:56:18.293Z,98622.00
2022-10-23T03:58:45.383Z,98615.94
2022-10-23T04:01:12.494Z,98616.88
2022-10-23T04:03:39.604Z,98617.72
2022-10-23T04:06:06.698Z,98622.09
2022-10-23T04:08:33.764Z,98629.91
2022-10-23T04:11:00.825Z,98629.91
2022-10-23T04:13:27.945Z,98619.63
2022-10-23T04:15:55.012Z,98622.22
2022-10-23T04:18:22.075Z,98620.44
2022-10-23T04:20:49.458Z,98622.22
2022-10-23T04:23:16.527Z,98623.13
2022-10-23T04:25:43.691Z,98632.63
2022-10-23T04:28:10.820Z,98620.53
2022-10-23T04:30:37.941Z,98614.41
2022-10-23T04:33:05.010Z,98613.59
2022-10-23T04:35:32.066Z,98607.53
2022-10-23T04:37:59.152Z,98606.69
2022-10-23T04:40:26.261Z,98607.53
2022-10-23T04:42:53.336Z,98615.34
2022-10-23T04:45:20.427Z,98608.47
2022-10-23T04:47:47.525Z,98611.09
2022-10-23T04:50:14.664Z,98603.28
2022-10-23T04:52:42.056Z,98608.47
2022-10-23T04:55:09.363Z,98606.81
2022-10-23T04:57:36.455Z,98603.41
2022-10-23T05:00:03.596Z,98609.31
2022-10-23T05:02:35.963Z,98611.22
2022-10-23T05:05:03.083Z,98619.00
2022-10-23T05:07:30.257Z,98617.25
2022-10-23T05:09:57.327Z,98622.44
2022-10-23T05:12:26.599Z,98613.81
2022-10-23T05:14:53.686Z,98619.84
2022-10-23T05:17:20.764Z,98608.59
2022-10-23T05:19:47.847Z,98618.06
2022-10-23T05:22:14.927Z,98609.56
2022-10-23T05:24:42.774Z,98616.50
2022-10-23T05:27:11.141Z,98613.00
2022-10-23T05:29:38.249Z,98613.91
2022-10-23T05:32:05.374Z,98608.69
2022-10-23T05:34:32.462Z,98616.50
2022-10-23T05:36:59.543Z,98620.78
2022-10-23T05:39:26.621Z,98623.50
2022-10-23T05:41:54.999Z,98624.31
2022-10-23T05:44:22.097Z,98626.00
2022-10-23T05:46:49.270Z,98609.56
2022-10-23T05:49:16.379Z,98601.84
2022-10-23T05:51:43.463Z,98588.84
2022-10-23T05:54:10.617Z,98595.00
2022-10-23T05:56:37.687Z,98602.81
2022-10-23T05:59:04.768Z,98597.59
2022-10-23T06:01:31.943Z,98601.84
2022-10-23T06:03:59.103Z,98594.16
2022-10-23T06:06:26.176Z,98602.81
2022-10-23T06:08:53.264Z,98601.03
2022-10-23T06:11:20.350Z,98605.41
2022-10-23T06:13:48.485Z,98603.63
2022-10-23T06:16:15.604Z,98604.56
2022-10-23T06:18:42.792Z,98599.38
2022-10-23T06:21:09.973Z,98604.56
2022-10-23T06:23:37.042Z,98610.59
2022-10-23T06:26:04.142Z,98609.78
2022-10-23T06:28:31.218Z,98598.53
2022-10-23T06:30:58.296Z,98604.56
2022-10-23T06:33:25.375Z,98614.16
2022-10-23T06:35:52.460Z,98613.31
2022-10-23T06:38:19.535Z,98621.84
2022-10-23T06:40:47.520Z,98619.25
2022-10-23T06:43:14.595Z,98621.97
2022-10-23T06:45:41.727Z,98617.59
2022-10-23T06:48:08.794Z,98615.91
2022-10-23T06:50:35.872Z,98613.31
2022-10-23T06:53:04.510Z,98611.56
2022-10-23T06:55:31.665Z,98608.09
2022-10-23T06:57:58.771Z,98611.56
2022-10-23T07:00:25.847Z,98618.50
2022-10-23T07:02:52.928Z,98624.56
2022-10-23T07:05:20.026Z,98620.19
2022-10-23T07:07:47.124Z,98622.78
2022-10-23T07:10:15.360Z,98608.97
2022-10-23T07:12:44.294Z,98615.00
2022-10-23T07:15:11.595Z,98617.47
2022-10-23T07:17:38.716Z,98602.81
2022-10-23T07:20:05.813Z,98605.41
2022-10-23T07:22:32.942Z,98605.28
2022-10-23T07:25:00.007Z,98601.16
2022-10-23T07:27:27.119Z,98601.84
2022-10-23T07:29:54.275Z,98605.28
2022-10-23T07:32:22.104Z,98607.88
2022-10-23T07:34:49.171Z,98606.09
2022-10-23T07:37:16.245Z,98605.28
2022-10-23T07:39:43.324Z,98606.09
2022-10-23T07:42:10.389Z,98604.34
2022-10-23T07:44:37.472Z,98600.91
2022-10-23T07:47:04.571Z,98600.81
2022-10-23T07:49:31.668Z,98603.41
2022-10-23T07:51:58.963Z,98599.97
2022-10-23T07:54:26.098Z,98599.03
2022-10-23T07:56:53.175Z,98601.63
2022-10-23T07:59:20.323Z,98600.66
2022-10-23T08:01:50.495Z,98594.66
2022-10-23T08:04:19.780Z,98593.00
2022-10-23T08:06:46.868Z,98586.84
2022-10-23T08:09:13.954Z,98582.59
2022-10-23T08:11:41.019Z,98576.44
2022-10-23T08:14:08.358Z,98574.66
2022-10-23T08:16:35.485Z,98581.50
2022-10-23T08:19:02.601Z,98574.44
2022-10-23T08:21:29.762Z,98570.16
2022-10-23T08:23:56.901Z,98572.78
2022-10-23T08:26:24.664Z,98564.84
2022-10-23T08:28:51.747Z,98565.66
2022-10-23T08:31:18.839Z,98567.34
2022-10-23T08:33:45.904Z,98564.63
2022-10-23T08:36:12.978Z,98562.00
2022-10-23T08:38:40.051Z,98560.22
2022-10-23T08:41:07.150Z,98550.56
2022-10-23T08:43:34.223Z,98550.41
2022-10-23T08:46:01.602Z,98551.25
2022-10-23T08:48:29.737Z,98551.25
2022-10-23T08:50:56.869Z,98553.66
2022-10-23T08:53:23.947Z,98544.88
2022-10-23T08:55:51.060Z,98545.03
2022-10-23T08:58:18.146Z,98540.75
2022-10-23T09:00:45.264Z,98534.59
2022-10-23T09:03:12.401Z,98528.56
2022-10-23T09:05:39.483Z,98525.97
2022-10-23T09:08:06.543Z,98531.06
2022-10-23T09:10:33.646Z,98532.69
2022-10-23T09:13:00.728Z,98537.81
2022-10-23T09:15:31.126Z,98536.84
2022-10-23T09:17:58.194Z,98535.06
2022-10-23T09:20:25.313Z,98537.44
2022-10-23T09:22:52.387Z,98534.97
2022-10-23T09:25:19.638Z,98532.38
2022-10-23T09:27:48.649Z,98531.66
2022-10-23T09:30:17.764Z,98542.28
2022-10-23T09:32:46.999Z,98540.50
2022-10-23T09:35:14.125Z,98537.91
2022-10-23T09:37:41.804Z,98538.63
2022-10-23T09:40:09.062Z,98534.13
2022-10-23T09:42:36.174Z,98521.97
2022-10-23T09:45:03.244Z,98517.56
2022-10-23T09:47:30.343Z,98521.69
2022-10-23T09:49:57.507Z,98517.44
2022-10-23T09:52:24.657Z,98506.06
2022-10-23T09:54:51.723Z,98502.66
2022-10-23T09:57:18.806Z,98499.94
2022-10-23T09:59:45.889Z,98503.47
2022-10-23T10:02:13.011Z,98505.97
2022-10-23T10:04:40.230Z,98508.59
2022-10-23T10:07:07.463Z,98509.41
2022-10-23T10:09:34.599Z,98507.63
2022-10-23T10:12:01.852Z,98510.22
2022-10-23T10:14:28.983Z,98507.63
2022-10-23T10:16:56.064Z,98499.94
2022-10-23T10:19:23.183Z,98494.50
2022-10-23T10:21:50.293Z,98489.03
2022-10-23T10:24:17.465Z,98493.19
2022-10-23T10:26:44.635Z,98490.59
2022-10-23T10:29:11.786Z,98481.13
2022-10-23T10:31:38.860Z,98467.97
2022-10-23T10:34:05.945Z,98457.47
2022-10-23T10:36:33.078Z,98456.50
2022-10-23T10:39:00.304Z,98459.09
2022-10-23T10:41:27.411Z,98457.47
2022-10-23T10:43:54.518Z,98451.41
2022-10-23T10:46:21.629Z,98443.59
2022-10-23T10:48:48.846Z,98434.13
2022-10-23T10:51:16.711Z,98436.63
2022-10-23T10:53:43.772Z,98434.84
2022-10-23T10:59:00.002Z,98428.69
2022-10-23T11:01:38.737Z,98428.56
2022-10-23T11:04:05.966Z,98416.38
2022-10-23T11:06:35.924Z,98408.56
2022-10-23T11:09:19.749Z,98401.81
2022-10-23T11:11:47.876Z,98394.13
2022-10-23T11:14:15.204Z,98381.94
2022-10-23T11:16:49.899Z,98382.88
2022-10-23T11:19:17.357Z,98387.25
2022-10-23T11:21:53.618Z,98395.78
2022-10-23T11:24:20.893Z,98395.66
2022-10-23T11:26:56.264Z,98397.31
2022-10-23T11:29:23.395Z,98405.13
2022-10-23T11:31:52.938Z,98412.94
2022-10-23T11:34:22.386Z,98415.88
2022-10-23T11:36:49.554Z,98413.84
2022-10-23T11:39:16.799Z,98406.88
2022-10-23T11:41:44.288Z,98408.28
2022-10-23T11:44:11.411Z,98396.78
2022-10-23T11:46:38.938Z,98407.94
2022-10-23T11:49:06.578Z,98394.63
2022-10-23T11:51:33.982Z,98393.81
2022-10-23T11:54:03.760Z,98387.91
2022-10-23T11:56:39.916Z,98367.66
2022-10-23T11:59:10.007Z,98363.28
2022-10-23T12:01:37.413Z,98358.88
2022-10-23T12:04:09.090Z,98359.47
2022-10-23T12:06:36.336Z,98351.66
2022-10-23T12:09:03.585Z,98338.63
2022-10-23T12:11:30.891Z,98335.88
2022-10-23T12:14:00.543Z,98343.84
2022-10-23T12:16:27.801Z,98347.97
2022-10-23T12:18:57.036Z,98345.09
2022-10-23T12:21:28.178Z,98331.25
2022-10-23T12:23:55.491Z,98336.34
2022-10-23T12:26:22.643Z,98333.03
2022-10-23T12:28:49.781Z,98328.66
2022-10-23T12:31:17.086Z,98332.22
2022-10-23T12:33:56.475Z,98340.84
2022-10-23T12:36:23.824Z,98341.56
2022-10-23T12:38:53.936Z,98334.56
2022-10-23T12:41:21.276Z,98331.97
2022-10-23T12:43:48.542Z,98320.72
2022-10-23T12:46:17.727Z,98314.41
2022-10-23T12:48:45.220Z,98307.41
2022-10-23T12:51:14.903Z,98304.72
2022-10-23T12:53:42.706Z,98290.97
2022-10-23T12:56:14.485Z,98293.47
2022-10-23T12:58:41.761Z,98288.13
2022-10-23T13:01:13.437Z,98287.16
2022-10-23T13:03:40.875Z,98290.09
2022-10-23T13:06:08.114Z,98288.75
2022-10-23T13:08:35.403Z,98287.09
2022-10-23T13:11:02.682Z,98281.19
2022-10-23T13:13:29.755Z,98291.47
2022-10-23T13:15:56.859Z,98304.41
2022-10-23T13:18:23.965Z,98290.66
2022-10-23T13:20:51.184Z,98287.09
2022-10-23T13:23:18.634Z,98274.19
2022-10-23T13:25:45.752Z,98281.88
2022-10-23T13:28:12.972Z,98279.97
2022-10-23T13:30:40.067Z,98273.94
2022-10-23T13:33:07.156Z,98267.91
2022-10-23T13:35:34.268Z,98265.16
2022-10-23T13:38:01.373Z,98263.38
2022-10-23T13:40:28.684Z,98258.06
2022-10-23T13:42:55.819Z,98251.63
2022-10-23T13:45:22.965Z,98260.94
2022-10-23T13:47:50.079Z,98259.88
2022-10-23T13:50:17.209Z,98247.56
2022-10-23T13:52:44.284Z,98248.22
2022-10-23T13:55:11.370Z,98248.22
2022-10-23T13:57:38.512Z,98253.44
2022-10-23T14:00:05.719Z,98253.34
2022-10-23T14:02:32.929Z,98261.16
2022-10-23T14:05:00.163Z,98256.06
2022-10-23T14:07:27.329Z,98250.84
2022-10-23T14:09:54.491Z,98243.72
2022-10-23T14:12:21.699Z,98247.84
2022-10-23T14:14:48.774Z,98250.22
2022-10-23T14:17:15.874Z,98239.94
2022-10-23T14:19:42.965Z,98240.75
2022-10-23T14:22:10.055Z,98242.28
2022-10-23T14:24:37.168Z,98251.84
2022-10-23T14:27:04.258Z,98249.53
2022-10-23T14:29:31.339Z,98246.78
2022-10-23T14:31:58.567Z,98240.75
2022-10-23T14:34:25.627Z,98240.75
2022-10-23T14:37:07.471Z,98238.25
2022-10-23T14:39:35.544Z,98233.03
2022-10-23T14:42:02.691Z,98236.34
2022-10-23T14:44:29.830Z,98232.78
2022-10-23T14:46:56.944Z,98228.69
2022-10-23T14:49:24.073Z,98230.44
2022-10-23T14:51:51.161Z,98218.69
2022-10-23T14:54:18.263Z,98222.25
2022-10-23T14:56:45.352Z,98222.25
2022-10-23T14:59:13.374Z,98223.38
2022-10-23T15:01:43.743Z,98218.72
2022-10-23T15:04:14.718Z,98219.81
2022-10-23T15:06:42.404Z,98214.03
2022-10-23T15:09:09.508Z,98212.25
2022-10-23T15:11:36.659Z,98219.50
2022-10-23T15:14:03.746Z,98216.88
2022-10-23T15:16:30.847Z,98208.50
2022-10-23T15:18:58.006Z,98209.47
2022-10-23T15:21:25.174Z,98217.97
2022-10-23T15:23:53.022Z,98214.81
2022-10-23T15:26:21.886Z,98214.81
2022-10-23T15:28:49.002Z,98219.44
2022-10-23T15:31:16.157Z,98220.63
2022-10-23T15:33:43.223Z,98223.00
2022-10-23T15:36:10.305Z,98226.69
2022-10-23T15:38:37.392Z,98225.03
2022-10-23T15:41:04.517Z,98211.88
2022-10-23T15:43:31.648Z,98212.69
2022-10-23T15:45:59.054Z,98215.16
2022-10-23T15:48:26.142Z,98214.50
2022-10-23T15:50:53.364Z,98212.81
2022-10-23T15:53:20.709Z,98218.88
2022-10-23T15:55:47.812Z,98205.97
2022-10-23T15:58:14.904Z,98214.19
2022-10-23T16:00:42.124Z,98213.88
2022-10-23T16:03:09.383Z,98211.97
2022-10-23T16:05:36.524Z,98216.47
2022-10-23T16:08:03.633Z,98214.25
2022-10-23T16:10:30.706Z,98208.34
2022-10-23T16:12:57.781Z,98198.19
2022-10-23T16:15:24.946Z,98205.44
2022-10-23T16:17:52.180Z,98202.97
2022-10-23T16:20:20.725Z,98194.56
2022-10-23T16:22:47.906Z,98191.16
2022-10-23T16:25:15.135Z,98192.09
2022-10-23T16:27:42.663Z,98190.47
2022-10-23T16:30:13.532Z,98184.41
2022-10-23T16:32:40.636Z,98175.78
2022-10-23T16:35:09.832Z,98181.13
2022-10-23T16:37:39.503Z,98187.28
2022-10-23T16:40:06.639Z,98175.34
2022-10-23T16:42:33.813Z,98169.31
2022-10-23T16:45:00.879Z,98176.31
2022-10-23T16:47:27.976Z,98163.38
2022-10-23T16:49:55.044Z,98154.75
2022-10-23T16:52:22.137Z,98148.72
2022-10-23T16:54:49.235Z,98131.47
2022-10-23T16:57:16.334Z,98128.97
2022-10-23T16:59:43.440Z,98156.78
2022-10-23T17:02:10.714Z,98179.28
2022-10-23T17:04:37.969Z,98177.78
2022-10-23T17:07:05.034Z,98174.34
2022-10-23T17:09:32.178Z,98170.91
2022-10-23T17:11:59.265Z,98169.25
2022-10-23T17:14:29.169Z,98172.81
2022-10-23T17:16:56.238Z,98174.72
2022-10-23T17:22:12.653Z,98167.84
2022-10-23T17:24:39.788Z,98169.63
2022-10-23T17:27:06.927Z,98172.25
2022-10-23T17:29:34.025Z,98187.06
2022-10-23T17:32:01.104Z,98181.84
2022-10-23T17:34:28.210Z,98171.56
2022-10-23T17:36:55.300Z,98173.31
2022-10-23T17:39:22.399Z,98188.00
2022-10-23T17:41:49.507Z,98183.72
2022-10-23T17:44:16.636Z,98184.69
2022-10-23T17:46:43.697Z,98178.66
2022-10-23T17:49:10.769Z,98188.13
2022-10-23T17:51:37.850Z,98188.94
2022-10-23T17:54:04.931Z,98175.25
2022-10-23T17:56:32.028Z,98188.25
2022-10-23T17:58:59.111Z,98179.63
2022-10-23T18:01:26.366Z,98168.38
2022-10-23T18:03:53.574Z,98177.13
2022-10-23T18:06:23.360Z,98169.31
2022-10-23T18:08:52.958Z,98160.69
2022-10-23T18:11:20.035Z,98141.63
2022-10-23T18:13:47.159Z,98125.19
2022-10-23T18:16:14.267Z,98126.97
2022-10-23T18:18:41.344Z,98148.75
2022-10-23T18:21:08.440Z,98163.44
2022-10-23T18:23:35.511Z,98159.88
2022-10-23T18:26:02.583Z,98136.44
2022-10-23T18:28:29.665Z,98144.38
2022-10-23T18:30:57.239Z,98160.81
2022-10-23T18:33:26.563Z,98153.84
2022-10-23T18:35:53.653Z,98150.41
2022-10-23T18:38:20.767Z,98141.78
2022-10-23T18:40:47.852Z,98148.75
2022-10-23T18:43:20.018Z,98147.91
2022-10-23T18:45:58.630Z,98150.53
2022-10-23T18:48:25.719Z,98147.91
2022-10-23T18:50:52.818Z,98148.88
2022-10-23T18:53:19.880Z,98141.06
2022-10-23T18:55:46.989Z,98142.03
2022-10-23T18:58:14.070Z,98148.06
2022-10-23T19:00:41.358Z,98154.09
2022-10-23T19:03:09.362Z,98153.28
2022-10-23T19:05:36.436Z,98142.03
2022-10-23T19:08:03.560Z,98132.44
2022-10-23T19:10:30.629Z,98146.28
2022-10-23T19:12:57.710Z,98136.00
2022-10-23T19:15:24.771Z,98130.78
2022-10-23T19:17:54.806Z,98124.78
2022-10-23T19:20:21.977Z,98128.19
2022-10-23T19:22:49.111Z,98124.78
2022-10-23T19:25:16.732Z,98123.09
2022-10-23T19:27:43.849Z,98123.09
2022-10-23T19:30:13.705Z,98110.91
2022-10-23T19:32:41.124Z,98110.91
2022-10-23T19:35:08.303Z,98123.09
2022-10-23T19:37:35.403Z,98136.13
2022-10-23T19:40:06.499Z,98139.53
2022-10-23T19:42:33.947Z,98156.00
2022-10-23T19:45:01.103Z,98176.00
2022-10-23T19:47:28.207Z,98176.84
2022-10-23T19:49:55.333Z,98193.28
2022-10-23T19:52:22.770Z,98216.56
2022-10-23T19:54:49.908Z,98240.97
2022-10-23T19:57:19.247Z,98219.31
2022-10-23T19:59:48.947Z,98222.84
2022-10-23T20:02:16.167Z,98243.69
2022-10-23T20:04:43.362Z,98271.50
2022-10-23T20:07:10.435Z,98295.75
2022-10-23T20:09:37.502Z,98278.38
2022-10-23T20:12:04.622Z,98277.53
2022-10-23T20:14:31.701Z,98290.56
2022-10-23T20:16:59.779Z,98282.75
2022-10-23T20:19:27.075Z,98271.63
2022-10-23T20:21:54.259Z,98270.81
2022-10-23T20:24:21.463Z,98269.03
2022-10-23T20:26:48.568Z,98270.00
2022-10-23T20:29:15.650Z,98269.16
2022-10-23T20:31:43.520Z,98270.00
2022-10-23T20:34:10.619Z,98277.81
2022-10-23T20:36:39.325Z,98283.00
2022-10-23T20:39:08.433Z,98287.25
2022-10-23T20:41:37.343Z,98289.03
2022-10-23T20:44:04.564Z,98293.28
2022-10-23T20:46:31.687Z,98295.06
2022-10-23T20:48:58.810Z,98273.53
2022-10-23T20:51:25.985Z,98273.53
2022-10-23T20:53:54.528Z,98263.13
2022-10-23T20:56:23.302Z,98273.53
2022-10-23T20:58:50.368Z,98277.09
2022-10-23T21:01:17.680Z,98275.31
2022-10-23T21:03:59.409Z,98288.31
2022-10-23T21:06:26.504Z,98289.16
2022-10-23T21:08:53.583Z,98283.94
2022-10-23T21:11:20.681Z,98256.25
2022-10-23T21:13:47.808Z,98252.00
2022-10-23T21:16:14.900Z,98246.81
2022-10-23T21:18:46.102Z,98238.19
2022-10-23T21:21:13.663Z,98244.22
2022-10-23T21:23:40.856Z,98245.84
2022-10-23T21:26:07.972Z,98236.41
2022-10-23T21:28:35.079Z,98241.47
2022-10-23T21:31:02.144Z,98247.50
2022-10-23T21:33:29.604Z,98242.28
2022-10-23T21:35:58.383Z,98239.81
2022-10-23T21:38:31.827Z,98223.38
2022-10-23T21:40:58.903Z,98229.41
2022-10-23T21:43:25.972Z,98218.16
2022-10-23T21:45:56.746Z,98225.03
2022-10-23T21:48:25.911Z,98235.44
2022-10-23T21:50:53.006Z,98244.06
2022-10-23T21:53:20.083Z,98245.84
2022-10-23T21:55:47.210Z,98244.06
2022-10-23T21:58:14.350Z,98244.88
2022-10-23T22:00:41.459Z,98246.66
2022-10-23T22:03:08.562Z,98244.06
2022-10-23T22:05:35.638Z,98246.66
2022-10-23T22:08:02.733Z,98244.06
2022-10-23T22:10:29.843Z,98260.66
2022-10-23T22:12:56.906Z,98262.44
2022-10-23T22:15:23.982Z,98265.84
2022-10-23T22:17:51.118Z,98261.47
2022-10-23T22:20:18.244Z,98271.88
2022-10-23T22:22:45.349Z,98271.88
2022-10-23T22:25:12.428Z,98254.63
2022-10-23T22:27:39.503Z,98246.91
2022-10-23T22:30:06.598Z,98245.13
2022-10-23T22:32:33.779Z,98242.53
2022-10-23T22:35:00.875Z,98245.13
2022-10-23T22:37:28.007Z,98247.75
2022-10-23T22:39:55.101Z,98242.53
2022-10-23T22:42:22.171Z,98241.72
2022-10-23T22:44:49.244Z,98245.13
2022-10-23T22:47:16.394Z,98232.13
2022-10-23T22:49:43.485Z,98239.25
2022-10-23T22:52:10.541Z,98233.06
2022-10-23T22:54:37.648Z,98234.72
2022-10-23T22:57:04.758Z,98236.50
2022-10-23T22:59:31.839Z,98234.72
2022-10-23T23:05:05.467Z,98227.88
2022-10-23T23:07:32.625Z,98231.44
2022-10-23T23:09:59.724Z,98220.19
2022-10-23T23:12:26.819Z,98225.28
2022-10-23T23:14:53.898Z,98224.44
2022-10-23T23:20:30.947Z,98234.84
2022-10-23T23:22:58.018Z,98233.91
2022-10-23T23:25:25.085Z,98227.88
2022-10-23T23:27:52.167Z,98226.09
2022-10-23T23:30:19.255Z,98231.28
2022-10-23T23:32:46.575Z,98232.13
2022-10-23T23:35:13.865Z,98243.50
2022-10-23T23:37:40.949Z,98245.13
2022-10-23T23:40:08.004Z,98249.53
2022-10-23T23:42:35.113Z,98252.94
2022-10-23T23:45:02.932Z,98258.16
2022-10-23T23:47:40.670Z,98253.78
2022-10-23T23:50:07.811Z,98257.31
2022-10-23T23:52:34.911Z,98262.44
2022-10-23T23:55:01.985Z,98270.25
2022-10-23T23:57:29.094Z,98274.63
2022-10-23T23:59:56.196Z,98279.84
